WSSSWIDD

Guest
Details From WSSS - Singapore Changi Intl. Airport
To WIDD - Batam Hang Nadim
Flight Number -
Tags generated
Created
Modified
Stats Distance 16 nm / 29 km
Max Altitude 0 ft / 0 m
Waypoints 2
Social Downloads 1
Likes 0
Share VATSIM

Download

Looking for another format? Having issues loading an existing format? Contact us
Advertisement - Login to hide

Notes

Basic altitude profile: - Ascent Rate: 2500ft/min - Ascent Speed: 250kts - Cruise Altitude: 35000ft - Cruise Speed: 420kts - Descent Rate: 1500ft/min - Descent Speed: 250kts Options: - Use NATs: yes - Use PACOTS: yes - Use low airways: yes - Use high airways: yes

Route

WSSS WIDD

ID Type Via Altitude Latitude Longitude Leg Dist Tot Dist Heading (true) Name
O WSSS APT - 0 ft / 0 m 1.35192˚ 103.99560˚ - 0 nm - Singapore Changi Intl. Airport
O WIDD APT - 0 ft / 0 m 1.12103˚ 104.11875˚ 15 nm 15 nm 152° / 152° Batam Hang Nadim

Altitude Profile

Advertisement - Login to hide

WSSS

Details ICAO WSSS (SIN)
Name Singapore Changi Intl. Airport
Region Singapore
Timezone Unknown (UTC+0.0)
Stats Elevation 22 ft / 7 m (AMSL)
Location 1.351917° 103.995603°
Runways 3
Magnetic Variation 0.229° E

METAR

WSSS 180900Z 04011KT 350V090 9999 FEW018 BKN300 29/22 Q1010 NOSIG

Decode

TAF

TAF AMD WSSS 180800Z 1808/1912 01012KT 9999 FEW015 SCT020 TEMPO 1904/1908 4500 SHRA FEW012CB BKN015

Decode

Departure Runways

ID Width Length Bearing (true) Bearing (mag) Surface Threshold Offset Overrun Length
02C 164 ft / 50 m 13,619 ft / 4,151 m 22.80° 22.57° Asphalt 200 ft / 61 m 0 ft / 0 m
02L 164 ft / 50 m 14,308 ft / 4,361 m 22.69° 22.46° Asphalt 200 ft / 61 m 0 ft / 0 m
02R 164 ft / 50 m 10,072 ft / 3,070 m 22.74° 22.51° Asphalt 600 ft / 183 m 0 ft / 0 m
20C 164 ft / 50 m 13,619 ft / 4,151 m 202.80° 202.57° Asphalt 200 ft / 61 m 0 ft / 0 m
20L 164 ft / 50 m 10,072 ft / 3,070 m 202.74° 202.51° Asphalt 499 ft / 152 m 0 ft / 0 m
20R 164 ft / 50 m 14,308 ft / 4,361 m 202.69° 202.46° Asphalt 3,301 ft / 1,006 m 0 ft / 0 m

WIDD

Details ICAO WIDD (BTH)
Name Batam Hang Nadim
Region Indonesia
Timezone Asia/Jakarta (UTC+7.0)
Stats Elevation 126 ft / 38 m (AMSL)
Location 1.121028° 104.118754°
Runways 1
Magnetic Variation 0.248° E

METAR

WIDD 180830Z 03019KT 9999 SCT014 31/21 Q1011

Decode

TAF

TAF WIDD 180500Z 1806/1906 03014KT 9000 SCT014 PROB30 TEMPO 1806/1810 6000 -TSRA FEW014CB

Decode

Destination Runways

ID Width Length Bearing (true) Bearing (mag) Surface Threshold Offset Overrun Length
04 148 ft / 45 m 13,295 ft / 4,052 m 41.80° 41.55° Asphalt 0 ft / 0 m 200 ft / 61 m
22 148 ft / 45 m 13,295 ft / 4,052 m 221.80° 221.55° Asphalt 0 ft / 0 m 200 ft / 61 m

Approach Navaids

Runway Type Ident Frequency Range Bearing (true) Bearing (mag) Slope Elevation
04 Localiser IBTM 110.10 MHz 18 nm / 33 km 41.79° 41.54° - 69 ft / 21 m (AMSL)
04 Glidescope IBTM 110.10 MHz 10 nm / 19 km 41.80° 41.55° 3.00° 125 ft / 38 m (AMSL)
04 DME IBTM 110.10 MHz 18 nm / 33 km - - - 69 ft / 21 m (AMSL)

Popular Alternatives